createdAt,value
2023-12-05T00:33:49.309Z,97232.31
2023-12-05T00:36:16.323Z,97213.28
2023-12-05T00:38:44.687Z,97222.41
2023-12-05T00:41:12.688Z,97186.81
2023-12-05T00:43:40.849Z,97223.72
2023-12-05T00:46:09.007Z,97191.19
2023-12-05T00:48:37.281Z,97234.13
2023-12-05T00:51:05.813Z,97214.81
2023-12-05T00:53:34.146Z,97200.28
2023-12-05T00:56:02.159Z,97201.91
2023-12-05T00:58:30.354Z,97216.69
2023-12-05T01:00:58.491Z,97163.25
2023-12-05T01:03:26.769Z,97203.28
2023-12-05T01:05:54.970Z,97163.41
2023-12-05T01:08:23.409Z,97206.69
2023-12-05T01:10:52.028Z,97212.78
2023-12-05T01:13:20.047Z,97184.41
2023-12-05T01:15:50.402Z,97204.94
2023-12-05T01:18:18.809Z,97184.97
2023-12-05T01:20:47.046Z,97168.63
2023-12-05T01:23:15.105Z,97180.84
2023-12-05T01:25:43.418Z,97148.69
2023-12-05T01:28:11.362Z,97139.56
2023-12-05T01:30:39.337Z,97173.50
2023-12-05T01:33:07.261Z,97166.19
2023-12-05T01:35:39.297Z,97165.63
2023-12-05T01:38:07.174Z,97152.59
2023-12-05T01:40:35.308Z,97140.38
2023-12-05T01:43:03.247Z,97185.09
2023-12-05T01:45:31.493Z,97118.56
2023-12-05T01:47:59.698Z,97171.03
2023-12-05T01:50:30.696Z,97163.53
2023-12-05T01:53:04.424Z,97088.34
2023-12-05T01:55:33.311Z,97123.28
2023-12-05T01:58:02.150Z,97155.66
2023-12-05T02:00:30.589Z,97115.19
2023-12-05T02:02:59.329Z,97147.47
2023-12-05T02:05:28.159Z,97129.81
2023-12-05T02:07:56.604Z,97091.31
2023-12-05T02:10:24.982Z,97132.25
2023-12-05T02:12:53.352Z,97104.84
2023-12-05T02:15:21.792Z,97128.13
2023-12-05T02:17:57.957Z,97140.16
2023-12-05T02:20:35.399Z,97094.47
2023-12-05T02:23:41.213Z,97132.06
2023-12-05T02:26:30.055Z,97051.84
2023-12-05T02:28:58.335Z,97105.22
2023-12-05T02:31:26.570Z,97093.34
2023-12-05T02:33:55.470Z,97076.59
2023-12-05T02:36:50.358Z,97119.75
2023-12-05T02:39:42.501Z,97075.69
2023-12-05T02:42:13.288Z,97100.81
2023-12-05T02:44:49.336Z,97043.53
2023-12-05T02:47:20.975Z,97066.50
2023-12-05T02:49:49.105Z,97095.75
2023-12-05T02:52:17.875Z,97088.59
2023-12-05T02:54:46.616Z,97065.66
2023-12-05T02:57:15.021Z,97059.53
2023-12-05T02:59:43.101Z,97093.78
2023-12-05T03:02:12.730Z,97093.16
2023-12-05T03:04:40.974Z,97088.66
2023-12-05T03:07:09.035Z,97074.00
2023-12-05T03:09:37.782Z,97062.34
2023-12-05T03:12:05.996Z,97018.00
2023-12-05T03:14:34.311Z,97093.59
2023-12-05T03:17:02.628Z,97069.38
2023-12-05T03:19:31.602Z,97098.91
2023-12-05T03:21:59.872Z,97048.19
2023-12-05T03:24:28.176Z,97064.88
2023-12-05T03:26:56.506Z,97107.34
2023-12-05T03:29:24.473Z,97094.34
2023-12-05T03:31:52.500Z,97098.16
2023-12-05T03:34:20.623Z,97091.44
2023-12-05T03:36:48.429Z,97038.66
2023-12-05T03:39:16.672Z,97102.44
2023-12-05T03:41:45.999Z,97092.41
2023-12-05T03:44:14.371Z,97084.09
2023-12-05T03:46:42.645Z,97056.44
2023-12-05T03:49:10.932Z,97100.84
2023-12-05T03:51:38.917Z,97093.44
2023-12-05T03:54:07.443Z,97033.88
2023-12-05T03:56:35.641Z,97122.78
2023-12-05T03:59:06.199Z,97093.31
2023-12-05T04:01:34.196Z,97109.47
2023-12-05T04:04:02.568Z,97071.44
2023-12-05T04:06:30.733Z,97064.44
2023-12-05T04:08:58.909Z,97106.53
2023-12-05T04:11:32.200Z,97098.00
2023-12-05T04:14:01.364Z,97067.09
2023-12-05T04:16:29.737Z,97073.63
2023-12-05T04:18:58.198Z,97057.09
2023-12-05T04:21:27.949Z,97055.38
2023-12-05T04:23:56.251Z,97102.84
2023-12-05T04:28:53.382Z,97095.94
2023-12-05T04:31:21.609Z,97049.16
2023-12-05T04:33:49.718Z,97091.50
2023-12-05T04:36:17.840Z,97045.84
2023-12-05T04:38:45.691Z,97083.56
2023-12-05T04:41:14.262Z,97080.75
2023-12-05T04:43:42.439Z,97097.41
2023-12-05T04:46:12.247Z,97056.84
2023-12-05T04:48:40.658Z,97069.31
2023-12-05T04:51:08.927Z,97065.34
2023-12-05T04:53:37.017Z,97077.69
2023-12-05T04:56:05.573Z,97083.50
2023-12-05T04:58:34.893Z,97043.22
2023-12-05T05:01:02.922Z,97070.69
2023-12-05T05:03:31.282Z,97041.09
2023-12-05T05:05:59.482Z,97061.66
2023-12-05T05:08:26.483Z,97051.06
2023-12-05T05:10:54.918Z,97073.13
2023-12-05T05:13:22.773Z,97023.44
2023-12-05T05:15:51.050Z,96960.47
2023-12-05T05:18:21.553Z,96958.22
2023-12-05T05:20:49.771Z,97075.41
2023-12-05T05:23:18.132Z,97000.91
2023-12-05T05:25:48.968Z,96984.66
2023-12-05T05:28:17.533Z,97082.59
2023-12-05T05:30:45.821Z,96981.94
2023-12-05T05:33:14.645Z,96983.47
2023-12-05T05:35:43.252Z,97040.81
2023-12-05T05:38:10.851Z,97003.34
2023-12-05T05:40:41.269Z,96940.63
2023-12-05T05:43:10.255Z,96963.56
2023-12-05T05:45:41.571Z,96952.19
2023-12-05T05:48:12.205Z,97003.34
2023-12-05T05:50:44.562Z,96939.63
2023-12-05T05:53:15.364Z,97019.88
2023-12-05T05:55:43.675Z,97048.44
2023-12-05T05:58:12.644Z,97077.91
2023-12-05T06:00:41.279Z,97008.66
2023-12-05T06:03:10.373Z,96991.50
2023-12-05T06:05:38.486Z,97035.88
2023-12-05T06:08:06.393Z,97011.25
2023-12-05T06:10:34.430Z,97039.94
2023-12-05T06:13:02.541Z,97017.47
2023-12-05T06:15:30.383Z,97036.03
2023-12-05T06:17:59.215Z,96989.84
2023-12-05T06:20:27.397Z,97055.16
2023-12-05T06:22:55.301Z,97054.81
2023-12-05T06:25:23.868Z,97051.13
2023-12-05T06:27:52.339Z,97057.44
2023-12-05T06:30:25.031Z,97029.44
2023-12-05T06:32:56.049Z,97026.34
2023-12-05T06:35:24.213Z,97053.75
2023-12-05T06:37:55.221Z,97051.00
2023-12-05T06:40:24.435Z,97041.28
2023-12-05T06:42:52.568Z,97058.84
2023-12-05T06:45:21.044Z,97048.34
2023-12-05T06:47:49.519Z,97042.13
2023-12-05T06:50:17.898Z,97047.78
2023-12-05T06:52:46.004Z,97060.47
2023-12-05T06:55:14.250Z,97011.72
2023-12-05T06:57:42.130Z,97066.44
2023-12-05T07:00:10.676Z,97054.00
2023-12-05T07:02:38.733Z,97058.28
2023-12-05T07:05:07.558Z,97036.25
2023-12-05T07:07:36.297Z,97047.69
2023-12-05T07:10:07.943Z,97064.63
2023-12-05T07:12:36.831Z,97075.03
2023-12-05T07:15:05.611Z,97023.84
2023-12-05T07:17:33.664Z,97026.03
2023-12-05T07:20:01.817Z,97060.84
2023-12-05T07:22:29.876Z,97048.69
2023-12-05T07:25:01.048Z,97041.69
2023-12-05T07:27:31.608Z,97004.38
2023-12-05T07:29:59.579Z,97046.75
2023-12-05T07:32:27.603Z,97023.00
2023-12-05T07:34:55.737Z,97009.88
2023-12-05T07:37:22.951Z,97061.75
2023-12-05T07:39:51.365Z,97026.50
2023-12-05T07:42:19.662Z,97073.72
2023-12-05T07:44:47.483Z,97024.50
2023-12-05T07:47:15.872Z,97068.00
2023-12-05T07:49:47.356Z,97044.72
2023-12-05T07:52:15.861Z,97053.38
2023-12-05T07:54:42.963Z,97076.22
2023-12-05T07:57:11.265Z,97007.75
2023-12-05T07:59:39.664Z,97046.44
2023-12-05T08:02:08.542Z,97053.44
2023-12-05T08:04:38.001Z,97009.47
2023-12-05T08:07:06.896Z,97054.16
2023-12-05T08:09:37.694Z,97026.72
2023-12-05T08:12:06.206Z,97025.81
2023-12-05T08:14:33.506Z,97006.94
2023-12-05T08:17:01.714Z,97028.13
2023-12-05T08:19:28.575Z,97018.72
2023-12-05T08:21:56.992Z,96999.09
2023-12-05T08:24:25.667Z,97039.78
2023-12-05T08:26:53.686Z,97015.16
2023-12-05T08:29:23.083Z,97015.53
2023-12-05T08:31:53.445Z,97001.81
2023-12-05T08:34:20.525Z,97072.84
2023-12-05T08:36:48.726Z,97028.78
2023-12-05T08:39:16.660Z,97043.88
2023-12-05T08:41:44.539Z,97045.88
2023-12-05T08:44:12.765Z,97040.22
2023-12-05T08:46:41.038Z,97038.56
2023-12-05T08:49:09.157Z,97014.53
2023-12-05T08:51:37.453Z,97031.75
2023-12-05T08:54:05.366Z,96995.59
2023-12-05T08:56:33.959Z,97027.91
2023-12-05T08:59:00.896Z,97034.16
2023-12-05T09:01:29.886Z,97050.84
2023-12-05T09:03:58.131Z,97063.19
2023-12-05T09:06:26.604Z,97082.63
2023-12-05T09:08:56.518Z,97073.25
2023-12-05T09:11:25.031Z,97030.56
2023-12-05T09:13:53.312Z,97056.00
2023-12-05T09:16:21.874Z,97001.22
2023-12-05T09:18:52.259Z,96989.41
2023-12-05T09:21:20.375Z,97008.47
2023-12-05T09:23:49.197Z,97007.41
2023-12-05T09:26:17.427Z,97020.88
2023-12-05T09:28:46.051Z,97042.50
2023-12-05T09:31:14.288Z,97032.19
2023-12-05T09:33:42.619Z,97003.59
2023-12-05T09:36:12.303Z,97015.47
2023-12-05T09:38:40.595Z,97049.59
2023-12-05T09:41:09.263Z,97001.47
2023-12-05T09:43:41.414Z,96953.09
2023-12-05T09:46:11.066Z,97026.25
2023-12-05T09:48:49.392Z,97028.22
2023-12-05T09:51:20.362Z,97041.06
2023-12-05T09:53:50.013Z,97025.72
2023-12-05T09:56:19.772Z,96988.69
2023-12-05T09:58:48.946Z,97035.03
2023-12-05T10:01:18.821Z,97048.00
2023-12-05T10:03:55.122Z,97044.81
2023-12-05T10:06:28.295Z,97044.81
2023-12-05T10:08:58.337Z,97016.75
2023-12-05T10:11:29.198Z,97039.63
2023-12-05T10:13:59.035Z,97013.41
2023-12-05T10:16:28.917Z,97018.00
2023-12-05T10:18:58.678Z,96981.38
2023-12-05T10:21:29.893Z,96994.81
2023-12-05T10:23:58.699Z,96970.25
2023-12-05T10:26:27.143Z,96990.09
2023-12-05T10:28:57.110Z,96990.13
2023-12-05T10:31:25.655Z,96963.38
2023-12-05T10:34:16.928Z,97003.53
2023-12-05T10:37:06.912Z,97008.38
2023-12-05T10:39:37.722Z,96986.44
2023-12-05T10:42:06.028Z,96949.25
2023-12-05T10:44:43.220Z,96978.75
2023-12-05T10:47:17.124Z,97002.31
2023-12-05T10:49:46.831Z,96947.41
2023-12-05T10:52:15.896Z,96997.22
2023-12-05T10:54:45.945Z,96967.47
2023-12-05T10:57:14.151Z,96992.66
2023-12-05T10:59:42.327Z,96974.75
2023-12-05T11:02:16.695Z,96978.75
2023-12-05T11:04:45.011Z,96959.75
2023-12-05T11:07:13.582Z,96963.19
2023-12-05T11:09:45.145Z,96969.03
2023-12-05T11:12:17.491Z,97011.78
2023-12-05T11:14:49.559Z,96941.91
2023-12-05T11:17:23.680Z,96998.88
2023-12-05T11:20:33.184Z,96983.94
2023-12-05T11:23:25.115Z,97005.63
2023-12-05T11:26:10.437Z,97007.53
2023-12-05T11:29:24.957Z,97007.28
2023-12-05T11:32:29.409Z,97004.63
2023-12-05T11:35:41.981Z,96952.09
2023-12-05T11:38:16.908Z,97000.31
2023-12-05T11:41:13.997Z,97007.81
2023-12-05T11:43:45.837Z,97006.69
2023-12-05T11:46:18.691Z,96976.75
2023-12-05T11:48:47.040Z,96955.06
2023-12-05T11:51:16.921Z,96949.44
2023-12-05T11:53:45.025Z,96986.41
2023-12-05T11:56:22.597Z,96969.59
2023-12-05T11:58:50.782Z,96957.28
2023-12-05T12:01:19.427Z,96949.25
2023-12-05T12:03:57.533Z,96995.56
2023-12-05T12:06:26.713Z,96942.34
2023-12-05T12:08:56.552Z,96980.59
2023-12-05T12:11:25.387Z,96983.78
2023-12-05T12:13:52.827Z,96920.63
2023-12-05T12:16:22.233Z,97001.94
2023-12-05T12:18:54.319Z,96995.84
2023-12-05T12:21:32.116Z,96934.06
2023-12-05T12:24:00.665Z,96937.00
2023-12-05T12:26:33.607Z,96989.94
2023-12-05T12:29:11.431Z,96938.84
2023-12-05T12:31:39.590Z,96970.97
2023-12-05T12:34:09.688Z,96954.91
2023-12-05T12:36:40.872Z,96964.31
2023-12-05T12:39:11.174Z,96973.94
2023-12-05T12:41:40.271Z,96973.34
2023-12-05T12:44:10.382Z,96965.34
2023-12-05T12:46:38.630Z,96989.41
2023-12-05T12:49:08.135Z,96954.06
2023-12-05T12:51:40.094Z,96959.41
2023-12-05T12:54:10.468Z,96943.63
2023-12-05T12:56:41.737Z,96970.63
2023-12-05T12:59:12.203Z,96998.75
2023-12-05T13:01:41.766Z,96945.19
2023-12-05T13:04:15.533Z,96937.44
2023-12-05T13:06:48.377Z,96977.84
2023-12-05T13:09:20.932Z,96982.94
2023-12-05T13:11:52.396Z,96960.22
2023-12-05T13:14:23.238Z,96936.63
2023-12-05T13:16:51.729Z,96941.44
2023-12-05T13:19:37.537Z,96971.38
2023-12-05T13:22:05.653Z,96976.97
2023-12-05T13:24:33.977Z,96999.47
2023-12-05T13:27:04.499Z,96960.97
2023-12-05T13:29:32.895Z,96986.34
2023-12-05T13:32:01.064Z,96993.81
2023-12-05T13:34:28.116Z,96946.91
2023-12-05T13:36:56.485Z,96979.78
2023-12-05T13:39:27.132Z,96975.50
2023-12-05T13:41:55.262Z,97000.09
2023-12-05T13:44:24.657Z,96983.97
2023-12-05T13:46:56.451Z,96942.16
2023-12-05T13:49:25.516Z,96991.16
2023-12-05T13:51:55.326Z,97002.91
2023-12-05T13:54:24.025Z,96974.53
2023-12-05T13:56:52.699Z,96985.19
2023-12-05T13:59:20.967Z,96969.44
2023-12-05T14:01:49.319Z,96995.38
2023-12-05T14:04:19.195Z,96992.44
2023-12-05T14:06:47.833Z,96935.84
2023-12-05T14:09:16.776Z,96983.00
2023-12-05T14:11:45.466Z,96988.09
2023-12-05T14:14:15.733Z,96940.44
2023-12-05T14:16:44.055Z,96980.50
2023-12-05T14:19:12.278Z,96957.50
2023-12-05T14:21:39.898Z,96952.94
2023-12-05T14:24:08.102Z,96993.53
2023-12-05T14:26:38.498Z,96960.41
2023-12-05T14:29:06.819Z,96993.69
2023-12-05T14:31:35.393Z,96966.41
2023-12-05T14:34:09.163Z,97007.84
2023-12-05T14:36:37.058Z,96978.78
2023-12-05T14:39:10.794Z,96963.03
2023-12-05T14:41:39.881Z,97026.50
2023-12-05T14:44:08.207Z,97011.63
2023-12-05T14:46:37.785Z,96995.53
2023-12-05T14:49:08.799Z,97016.25
2023-12-05T14:51:48.272Z,97047.91
2023-12-05T14:54:17.001Z,97041.69
2023-12-05T14:56:47.305Z,97041.81
2023-12-05T14:59:23.461Z,97044.47
2023-12-05T15:41:35.199Z,97042.03
2023-12-05T15:44:05.896Z,96938.31
2023-12-05T15:46:37.680Z,97049.56
2023-12-05T15:49:05.439Z,97043.41
2023-12-05T15:51:40.159Z,96944.09
2023-12-05T15:54:07.566Z,96954.47
2023-12-05T15:56:37.843Z,96941.94
2023-12-05T15:59:05.741Z,97052.25
2023-12-05T16:01:34.512Z,96952.16
2023-12-05T16:04:04.666Z,96952.28
2023-12-05T16:06:32.552Z,96915.31
2023-12-05T16:09:01.928Z,96976.59
2023-12-05T16:11:40.540Z,96962.56
2023-12-05T16:14:07.566Z,96925.59
2023-12-05T16:16:34.462Z,96965.19
2023-12-05T16:19:01.453Z,97017.63
2023-12-05T16:21:28.538Z,97009.44
2023-12-05T16:23:55.462Z,96999.88
2023-12-05T16:26:22.351Z,97005.31
2023-12-05T16:28:50.092Z,97021.09
2023-12-05T16:31:17.617Z,96998.38
2023-12-05T16:33:44.669Z,97011.38
2023-12-05T16:36:11.717Z,96921.31
2023-12-05T16:38:38.675Z,96921.53
2023-12-05T16:41:05.831Z,96940.53
2023-12-05T16:43:33.381Z,96947.34
2023-12-05T16:46:00.655Z,96941.69
2023-12-05T16:48:27.745Z,96991.81
2023-12-05T16:50:56.064Z,96963.56
2023-12-05T16:53:22.923Z,97015.94
2023-12-05T16:55:49.863Z,97015.50
2023-12-05T16:58:20.270Z,97042.22
2023-12-05T17:00:47.997Z,97045.41
2023-12-05T17:03:15.898Z,97049.94
2023-12-05T17:05:43.070Z,97011.44
2023-12-05T17:08:12.986Z,96957.69
2023-12-05T17:10:43.119Z,96973.56
2023-12-05T17:13:15.548Z,97005.94
2023-12-05T17:15:43.537Z,96929.59
2023-12-05T17:18:14.271Z,97000.34
2023-12-05T17:20:42.960Z,96942.97
2023-12-05T17:25:39.398Z,96959.19
2023-12-05T17:28:07.661Z,96970.78
2023-12-05T17:30:36.951Z,97044.34
2023-12-05T17:35:54.804Z,96955.34
2023-12-05T17:38:24.167Z,96930.13
2023-12-05T17:40:52.211Z,96950.66
2023-12-05T17:43:21.113Z,96990.78
2023-12-05T17:45:49.722Z,97048.31
2023-12-05T17:48:18.186Z,96991.72
2023-12-05T17:50:52.160Z,96982.94
2023-12-05T17:53:23.565Z,96982.78
2023-12-05T17:55:57.702Z,96919.56
2023-12-05T17:58:24.670Z,97035.22
2023-12-05T18:00:53.341Z,97051.38
2023-12-05T18:03:24.374Z,97041.03
2023-12-05T18:05:53.300Z,97055.88
2023-12-05T18:08:29.337Z,97064.66
2023-12-05T18:10:59.282Z,97028.97
2023-12-05T18:13:27.761Z,97069.66
2023-12-05T18:15:55.837Z,97068.72
2023-12-05T18:18:24.768Z,97016.69
2023-12-05T18:20:52.926Z,97052.91
2023-12-05T18:23:20.867Z,97083.44
2023-12-05T18:25:49.246Z,97045.28
2023-12-05T18:28:17.794Z,97050.16
2023-12-05T18:30:45.879Z,97069.47
2023-12-05T18:33:14.374Z,97036.47
2023-12-05T18:35:43.463Z,97024.41
2023-12-05T18:38:11.125Z,97084.06
2023-12-05T18:40:39.121Z,97080.44
2023-12-05T18:43:08.909Z,97085.44
2023-12-05T18:45:37.453Z,97076.13
2023-12-05T18:48:07.259Z,97034.91
2023-12-05T18:50:38.712Z,97055.13
2023-12-05T18:53:06.721Z,97081.84
2023-12-05T18:55:34.903Z,97067.66
2023-12-05T18:58:07.739Z,97044.81
2023-12-05T19:00:37.026Z,97060.03
2023-12-05T19:03:08.761Z,97062.50
2023-12-05T19:05:37.633Z,97055.72
2023-12-05T19:08:07.265Z,97051.22
2023-12-05T19:10:35.565Z,97052.66
2023-12-05T19:13:03.893Z,97044.28
2023-12-05T19:15:32.147Z,97028.41
2023-12-05T19:18:07.479Z,97073.91
2023-12-05T19:20:38.002Z,97076.31
2023-12-05T19:23:08.139Z,97052.97
2023-12-05T19:25:36.297Z,97040.63
2023-12-05T19:28:05.947Z,97033.78
2023-12-05T19:30:34.327Z,97034.28
2023-12-05T19:33:04.114Z,97044.88
2023-12-05T19:35:34.913Z,97081.78
2023-12-05T19:38:05.757Z,97041.63
2023-12-05T19:40:35.366Z,97020.47
2023-12-05T19:43:09.405Z,97023.94
2023-12-05T19:45:39.494Z,97039.28
2023-12-05T19:48:13.429Z,97092.84
2023-12-05T19:50:42.224Z,97095.06
2023-12-05T19:53:10.259Z,97061.34
2023-12-05T19:55:44.046Z,97091.72
2023-12-05T19:58:20.172Z,97093.75
2023-12-05T20:00:49.524Z,97048.91
2023-12-05T20:03:23.138Z,97079.63
2023-12-05T20:05:51.272Z,97024.66
2023-12-05T20:08:18.295Z,97068.13
2023-12-05T20:10:47.004Z,97041.66
2023-12-05T20:13:17.659Z,97068.69
2023-12-05T20:15:45.689Z,97074.34
2023-12-05T20:18:13.654Z,97078.53
2023-12-05T20:20:42.930Z,97065.78
2023-12-05T20:23:11.184Z,97075.97
2023-12-05T20:25:39.135Z,97060.63
2023-12-05T20:28:08.332Z,97071.59
2023-12-05T20:30:39.249Z,97094.00
2023-12-05T20:33:07.696Z,97071.88
2023-12-05T20:35:35.834Z,97060.63
2023-12-05T20:38:04.524Z,97054.34
2023-12-05T20:40:34.639Z,97082.44
2023-12-05T20:43:02.652Z,97035.81
2023-12-05T20:45:31.109Z,97067.72
2023-12-05T20:47:59.501Z,97077.81
2023-12-05T20:50:31.387Z,97060.13
2023-12-05T20:53:04.002Z,97048.00
2023-12-05T20:55:35.192Z,97075.94
2023-12-05T20:58:03.474Z,97046.03
2023-12-05T21:00:30.429Z,97028.31
2023-12-05T21:02:59.888Z,97062.00
2023-12-05T21:05:27.841Z,97023.56
2023-12-05T21:07:56.144Z,97082.84
2023-12-05T21:10:24.624Z,97063.13
2023-12-05T21:12:53.065Z,97078.03
2023-12-05T21:15:21.109Z,97049.25
2023-12-05T21:17:51.590Z,97042.56
2023-12-05T21:20:23.187Z,97043.13
2023-12-05T21:22:54.369Z,97047.75
2023-12-05T21:25:22.430Z,97083.09
2023-12-05T21:27:51.672Z,97098.06
2023-12-05T21:30:20.241Z,97064.53
2023-12-05T21:32:48.287Z,97013.16
2023-12-05T21:35:18.333Z,97053.63
2023-12-05T21:37:50.101Z,97073.38
2023-12-05T21:40:18.457Z,97032.91
2023-12-05T21:42:49.323Z,97080.44
2023-12-05T21:45:18.697Z,97077.63
2023-12-05T21:47:50.273Z,97065.13
2023-12-05T21:50:17.415Z,97083.75
2023-12-05T21:52:44.345Z,97073.44
2023-12-05T21:55:12.531Z,97002.53
2023-12-05T21:57:39.390Z,97055.06
2023-12-05T22:00:08.641Z,97013.06
2023-12-05T22:02:35.528Z,97055.78
2023-12-05T22:05:04.585Z,97009.16
2023-12-05T22:07:33.434Z,97068.69
2023-12-05T22:10:01.807Z,97064.22
2023-12-05T22:12:28.656Z,97052.84
2023-12-05T22:14:58.520Z,97054.41
2023-12-05T22:17:26.600Z,97068.72
2023-12-05T22:19:56.035Z,97001.31
2023-12-05T22:22:25.016Z,97009.31
2023-12-05T22:24:55.374Z,97058.00
2023-12-05T22:27:24.654Z,97051.53
2023-12-05T22:29:53.228Z,97021.78
2023-12-05T22:32:22.470Z,97063.84
2023-12-05T22:34:53.038Z,97051.47
2023-12-05T22:37:23.643Z,97090.66
2023-12-05T22:39:55.084Z,97069.91
2023-12-05T22:42:24.153Z,97102.06
2023-12-05T22:44:54.442Z,97051.06
2023-12-05T22:47:22.891Z,97105.22
2023-12-05T22:49:51.359Z,97094.59
2023-12-05T22:52:19.572Z,97069.94
2023-12-05T22:54:47.748Z,97021.28
2023-12-05T22:57:15.941Z,97088.91
2023-12-05T22:59:45.266Z,97091.34
2023-12-05T23:02:20.850Z,97010.50
2023-12-05T23:04:49.013Z,97076.16
2023-12-05T23:07:19.262Z,97026.69
2023-12-05T23:09:48.753Z,97037.16
2023-12-05T23:12:16.615Z,97069.59
2023-12-05T23:14:48.575Z,97108.00
2023-12-05T23:17:16.483Z,97070.31
2023-12-05T23:19:44.386Z,97097.44
2023-12-05T23:22:12.968Z,97094.63
2023-12-05T23:24:41.543Z,97108.97
2023-12-05T23:27:09.672Z,97072.09
2023-12-05T23:29:37.747Z,97069.22
2023-12-05T23:32:06.833Z,97035.50
2023-12-05T23:34:35.237Z,97113.63
2023-12-05T23:37:06.268Z,97110.00
2023-12-05T23:39:34.900Z,97077.31
2023-12-05T23:42:05.139Z,97059.56
2023-12-05T23:44:35.854Z,97039.91
2023-12-05T23:47:11.691Z,97060.66
2023-12-05T23:49:39.430Z,97074.69
2023-12-05T23:52:08.091Z,97103.31
2023-12-05T23:54:37.362Z,97089.00
2023-12-05T23:57:06.866Z,97064.44
2023-12-05T23:59:44.971Z,97092.72
